createdAt,value
2017-05-27T00:01:30.113Z,6.07
2017-05-27T00:03:58.403Z,7.20
2017-05-27T00:06:26.697Z,6.88
2017-05-27T00:08:55.024Z,5.88
2017-05-27T00:11:23.371Z,7.35
2017-05-27T00:13:51.693Z,6.12
2017-05-27T00:16:19.982Z,6.47
2017-05-27T00:18:48.280Z,5.60
2017-05-27T00:21:16.602Z,7.05
2017-05-27T00:23:44.907Z,5.92
2017-05-27T00:26:13.203Z,6.43
2017-05-27T00:28:41.529Z,6.13
2017-05-27T00:31:09.818Z,6.87
2017-05-27T00:33:38.115Z,5.72
2017-05-27T00:36:06.432Z,6.05
2017-05-27T00:38:34.731Z,5.27
2017-05-27T00:41:03.050Z,5.50
2017-05-27T00:43:31.367Z,6.17
2017-05-27T00:46:00.662Z,5.37
2017-05-27T00:48:28.958Z,6.07
2017-05-27T00:50:57.274Z,5.32
2017-05-27T00:53:24.819Z,5.47
2017-05-27T00:55:53.105Z,5.02
2017-05-27T00:58:21.441Z,5.48
2017-05-27T01:00:49.742Z,5.70
2017-05-27T01:03:18.042Z,6.08
2017-05-27T01:05:46.365Z,5.70
2017-05-27T01:08:14.682Z,5.47
2017-05-27T01:10:42.994Z,5.83
2017-05-27T01:13:11.385Z,5.62
2017-05-27T01:15:39.690Z,6.25
2017-05-27T01:18:07.990Z,5.42
2017-05-27T01:20:36.314Z,6.35
2017-05-27T01:23:04.627Z,6.07
2017-05-27T01:25:32.927Z,6.90
2017-05-27T01:28:01.250Z,6.80
2017-05-27T01:30:29.544Z,5.65
2017-05-27T01:32:57.834Z,5.52
2017-05-27T01:35:26.170Z,6.15
2017-05-27T01:37:54.462Z,5.98
2017-05-27T01:40:22.764Z,6.45
2017-05-27T01:42:51.105Z,5.40
2017-05-27T01:45:19.411Z,5.28
2017-05-27T01:47:47.717Z,5.58
2017-05-27T01:50:16.045Z,6.20
2017-05-27T01:52:44.336Z,5.73
2017-05-27T01:55:12.651Z,6.38
2017-05-27T01:57:40.978Z,5.53
2017-05-27T02:00:09.605Z,6.23
2017-05-27T02:02:37.899Z,6.07
2017-05-27T02:05:06.218Z,6.33
2017-05-27T02:07:34.507Z,5.93
2017-05-27T02:10:02.804Z,5.65
2017-05-27T02:12:31.126Z,6.28
2017-05-27T02:14:59.428Z,5.80
2017-05-27T02:17:27.728Z,7.05
2017-05-27T02:19:56.072Z,6.20
2017-05-27T02:22:24.383Z,5.48
2017-05-27T02:24:52.686Z,7.12
2017-05-27T02:27:21.008Z,6.02
2017-05-27T02:29:49.306Z,5.98
2017-05-27T02:32:17.604Z,6.20
2017-05-27T02:34:45.926Z,6.63
2017-05-27T02:37:14.225Z,5.88
2017-05-27T02:39:42.527Z,5.62
2017-05-27T02:42:10.863Z,6.03
2017-05-27T02:44:39.163Z,6.65
2017-05-27T02:47:07.458Z,8.18
2017-05-27T02:49:35.789Z,7.62
2017-05-27T02:52:04.090Z,6.78
2017-05-27T02:54:32.395Z,6.68
2017-05-27T02:57:00.778Z,6.17
2017-05-27T02:59:29.070Z,6.30
2017-05-27T03:01:57.374Z,7.80
2017-05-27T03:04:25.697Z,6.42
2017-05-27T03:06:53.999Z,7.10
2017-05-27T03:09:22.291Z,6.52
2017-05-27T03:11:50.614Z,7.12
2017-05-27T03:14:18.910Z,6.53
2017-05-27T03:16:47.222Z,6.35
2017-05-27T03:19:15.555Z,6.73
2017-05-27T03:21:43.846Z,6.15
2017-05-27T03:24:12.143Z,7.43
2017-05-27T03:26:40.462Z,5.60
2017-05-27T03:29:08.761Z,6.13
2017-05-27T03:31:37.073Z,6.33
2017-05-27T03:34:05.375Z,7.72
2017-05-27T03:36:34.784Z,6.80
2017-05-27T03:39:03.112Z,6.62
2017-05-27T03:41:31.426Z,6.43
2017-05-27T03:43:59.717Z,7.27
2017-05-27T03:46:28.046Z,8.98
2017-05-27T03:48:56.347Z,7.55
2017-05-27T03:51:24.652Z,6.58
2017-05-27T03:53:53.591Z,6.68
2017-05-27T03:56:21.925Z,7.40
2017-05-27T03:58:50.222Z,7.07
2017-05-27T04:01:18.558Z,7.42
2017-05-27T04:03:47.814Z,8.07
2017-05-27T04:06:16.110Z,8.23
2017-05-27T04:08:44.425Z,6.97
2017-05-27T04:11:12.733Z,7.58
2017-05-27T04:13:41.062Z,8.10
2017-05-27T04:16:09.382Z,6.92
2017-05-27T04:18:37.679Z,8.10
2017-05-27T04:21:06.008Z,6.98
2017-05-27T04:23:34.307Z,7.08
2017-05-27T04:26:02.603Z,6.80
2017-05-27T04:28:30.923Z,6.50
2017-05-27T04:30:59.211Z,7.82
2017-05-27T04:33:27.498Z,6.98
2017-05-27T04:35:55.836Z,7.92
2017-05-27T04:38:24.133Z,8.23
2017-05-27T04:40:52.449Z,6.47
2017-05-27T04:43:20.783Z,7.20
2017-05-27T04:45:49.076Z,7.00
2017-05-27T04:48:17.378Z,6.10
2017-05-27T04:50:45.698Z,7.80
2017-05-27T04:53:14.003Z,5.96
2017-05-27T04:55:42.305Z,8.30
2017-05-27T04:58:10.633Z,7.80
2017-05-27T05:00:38.946Z,7.70
2017-05-27T05:03:07.234Z,7.22
2017-05-27T05:05:35.578Z,7.68
2017-05-27T05:08:03.884Z,6.50
2017-05-27T05:10:32.189Z,7.40
2017-05-27T05:13:00.510Z,7.28
2017-05-27T05:15:28.832Z,10.18
2017-05-27T05:17:57.127Z,6.52
2017-05-27T05:20:25.453Z,7.42
2017-05-27T05:22:53.749Z,7.18
2017-05-27T05:25:22.048Z,6.98
2017-05-27T05:27:50.383Z,7.14
2017-05-27T05:30:19.360Z,6.86
2017-05-27T05:32:47.662Z,7.62
2017-05-27T05:35:16.785Z,7.20
2017-05-27T05:37:45.088Z,7.66
2017-05-27T05:40:13.378Z,7.30
2017-05-27T05:42:41.707Z,6.94
2017-05-27T05:45:10.002Z,7.24
2017-05-27T05:47:38.303Z,7.22
2017-05-27T05:50:06.633Z,7.02
2017-05-27T05:52:34.934Z,6.82
2017-05-27T05:55:03.230Z,7.36
2017-05-27T05:57:31.558Z,6.12
2017-05-27T05:59:59.854Z,7.62
2017-05-27T06:02:28.156Z,7.44
2017-05-27T06:04:56.465Z,6.60
2017-05-27T06:07:25.395Z,7.48
2017-05-27T06:09:53.694Z,7.76
2017-05-27T06:12:22.013Z,6.74
2017-05-27T06:14:50.329Z,6.80
2017-05-27T06:17:18.619Z,7.24
2017-05-27T06:19:46.954Z,7.20
2017-05-27T06:22:15.267Z,7.22
2017-05-27T06:24:43.599Z,6.82
2017-05-27T06:27:11.931Z,7.38
2017-05-27T06:29:40.236Z,6.80
2017-05-27T06:32:08.538Z,8.66
2017-05-27T06:34:36.858Z,7.08
2017-05-27T06:37:05.162Z,8.06
2017-05-27T06:39:33.463Z,6.58
2017-05-27T06:42:01.786Z,6.70
2017-05-27T06:44:30.103Z,7.18
2017-05-27T06:46:58.402Z,7.12
2017-05-27T06:49:26.713Z,7.06
2017-05-27T06:51:55.005Z,7.82
2017-05-27T06:54:23.303Z,7.84
2017-05-27T06:56:51.632Z,7.40
2017-05-27T06:59:19.934Z,7.32
2017-05-27T07:01:49.451Z,6.54
2017-05-27T07:04:17.786Z,6.82
2017-05-27T07:06:46.084Z,6.60
2017-05-27T07:09:14.378Z,6.52
2017-05-27T07:11:42.692Z,7.06
2017-05-27T07:14:11.012Z,6.36
2017-05-27T07:16:39.310Z,6.10
2017-05-27T07:19:07.674Z,6.34
2017-05-27T07:21:35.979Z,6.68
2017-05-27T07:24:04.275Z,5.24
2017-05-27T07:26:32.894Z,6.04
2017-05-27T07:29:01.191Z,5.28
2017-05-27T07:31:29.487Z,5.36
2017-05-27T07:33:57.818Z,7.54
2017-05-27T07:36:26.111Z,5.66
2017-05-27T07:38:54.406Z,6.10
2017-05-27T07:41:22.724Z,5.36
2017-05-27T07:43:51.047Z,7.04
2017-05-27T07:46:19.343Z,6.40
2017-05-27T07:48:47.658Z,6.92
2017-05-27T07:51:15.963Z,6.64
2017-05-27T07:53:44.275Z,5.88
2017-05-27T07:56:12.654Z,5.26
2017-05-27T07:58:40.945Z,6.80
2017-05-27T08:01:09.257Z,6.32
2017-05-27T08:03:37.573Z,5.86
2017-05-27T08:06:05.884Z,5.78
2017-05-27T08:08:34.180Z,6.94
2017-05-27T08:11:02.500Z,5.42
2017-05-27T08:13:30.802Z,5.42
2017-05-27T08:15:59.714Z,4.82
2017-05-27T08:18:27.247Z,4.82
2017-05-27T08:20:55.538Z,4.76
2017-05-27T08:23:23.085Z,5.88
2017-05-27T08:25:51.384Z,5.38
2017-05-27T08:28:19.705Z,5.86
2017-05-27T08:30:48.014Z,5.66
2017-05-27T08:33:22.106Z,5.60
2017-05-27T08:35:50.410Z,4.54
2017-05-27T08:38:18.704Z,4.44
2017-05-27T08:40:47.026Z,4.84
2017-05-27T08:43:15.319Z,5.70
2017-05-27T08:45:43.634Z,4.44
2017-05-27T08:48:12.013Z,5.30
2017-05-27T08:50:40.307Z,4.56
2017-05-27T08:53:08.614Z,4.38
2017-05-27T08:55:36.909Z,4.50
2017-05-27T08:58:05.227Z,4.10
2017-05-27T09:00:33.576Z,3.92
2017-05-27T09:03:01.913Z,4.32
2017-05-27T09:05:30.230Z,4.70
2017-05-27T09:07:58.633Z,4.10
2017-05-27T09:10:26.950Z,7.92
2017-05-27T09:12:55.243Z,4.16
2017-05-27T09:15:23.534Z,4.30
2017-05-27T09:17:51.849Z,4.36
2017-05-27T09:20:20.147Z,4.76
2017-05-27T09:22:48.463Z,4.52
2017-05-27T09:25:16.763Z,3.74
2017-05-27T09:27:45.089Z,4.34
2017-05-27T09:30:13.406Z,4.34
2017-05-27T09:32:41.698Z,3.88
2017-05-27T09:35:10.089Z,4.36
2017-05-27T09:37:38.387Z,4.04
2017-05-27T09:40:06.674Z,4.32
2017-05-27T09:42:34.980Z,4.74
2017-05-27T09:45:03.301Z,5.06
2017-05-27T09:47:31.626Z,4.80
2017-05-27T09:49:59.920Z,4.46
2017-05-27T09:52:28.222Z,4.60
2017-05-27T09:54:56.529Z,5.12
2017-05-27T09:57:24.822Z,4.08
2017-05-27T09:59:53.156Z,5.02
2017-05-27T10:02:21.517Z,5.48
2017-05-27T10:04:49.844Z,4.80
2017-05-27T10:07:18.166Z,4.86
2017-05-27T10:09:46.461Z,5.44
2017-05-27T10:12:14.782Z,4.30
2017-05-27T10:14:43.082Z,4.50
2017-05-27T10:17:11.385Z,4.20
2017-05-27T10:19:39.715Z,5.04
2017-05-27T10:22:08.014Z,3.94
2017-05-27T10:24:36.334Z,3.74
2017-05-27T10:27:04.634Z,6.42
2017-05-27T10:29:32.944Z,3.90
2017-05-27T10:32:01.256Z,4.98
2017-05-27T10:34:28.792Z,4.04
2017-05-27T10:36:57.115Z,4.32
2017-05-27T10:39:25.417Z,5.10
2017-05-27T10:41:53.709Z,5.64
2017-05-27T10:44:22.021Z,4.56
2017-05-27T10:46:50.310Z,5.48
2017-05-27T10:49:18.626Z,5.48
2017-05-27T10:51:46.932Z,5.12
2017-05-27T10:54:15.235Z,4.30
2017-05-27T10:56:43.539Z,5.00
2017-05-27T10:59:11.836Z,4.60
2017-05-27T11:01:40.167Z,4.50
2017-05-27T11:04:08.458Z,4.10
2017-05-27T11:06:36.755Z,4.34
2017-05-27T11:09:05.070Z,4.26
2017-05-27T11:11:33.374Z,3.68
2017-05-27T11:14:01.695Z,4.28
2017-05-27T11:16:29.986Z,4.70
2017-05-27T11:18:58.283Z,4.48
2017-05-27T11:21:26.603Z,4.66
2017-05-27T11:23:54.909Z,4.68
2017-05-27T11:26:23.219Z,4.90
2017-05-27T11:28:51.518Z,4.16
2017-05-27T11:31:19.850Z,4.30
2017-05-27T11:33:48.146Z,4.44
2017-05-27T11:36:16.469Z,4.68
2017-05-27T11:38:44.782Z,4.52
2017-05-27T11:41:13.083Z,4.36
2017-05-27T11:43:41.413Z,4.28
2017-05-27T11:46:09.735Z,4.74
2017-05-27T11:48:38.044Z,4.96
2017-05-27T11:51:06.356Z,4.68
2017-05-27T11:53:34.657Z,4.66
2017-05-27T11:56:03.718Z,4.04
2017-05-27T11:58:32.023Z,4.12
2017-05-27T12:01:00.322Z,3.64
2017-05-27T12:03:28.641Z,3.90
2017-05-27T12:05:56.929Z,4.02
2017-05-27T12:08:25.357Z,4.04
2017-05-27T12:10:53.656Z,4.62
2017-05-27T12:13:21.959Z,5.72
2017-05-27T12:15:50.282Z,3.66
2017-05-27T12:18:18.581Z,4.66
2017-05-27T12:20:46.902Z,4.60
2017-05-27T12:23:16.023Z,4.28
2017-05-27T12:25:44.322Z,4.24
2017-05-27T12:28:12.634Z,4.14
2017-05-27T12:30:40.936Z,3.76
2017-05-27T12:33:09.282Z,4.12
2017-05-27T12:35:37.571Z,4.38
2017-05-27T12:38:05.877Z,4.58
2017-05-27T12:40:34.183Z,5.46
2017-05-27T12:43:02.476Z,3.64
2017-05-27T12:45:30.796Z,3.40
2017-05-27T12:47:59.094Z,4.42
2017-05-27T12:50:28.382Z,3.96
2017-05-27T12:52:56.705Z,4.70
2017-05-27T12:55:24.999Z,3.72
2017-05-27T12:57:53.323Z,3.92
2017-05-27T13:00:21.633Z,3.90
2017-05-27T13:02:50.026Z,3.50
2017-05-27T13:05:18.339Z,3.72
2017-05-27T13:07:46.636Z,4.00
2017-05-27T13:10:14.952Z,4.28
2017-05-27T13:12:43.246Z,3.60
2017-05-27T13:15:11.593Z,3.74
2017-05-27T13:17:39.898Z,3.74
2017-05-27T13:20:08.194Z,4.20
2017-05-27T13:22:36.509Z,3.48
2017-05-27T13:25:04.803Z,3.66
2017-05-27T13:27:33.103Z,4.34
2017-05-27T13:30:01.419Z,3.58
2017-05-27T13:32:29.721Z,3.68
2017-05-27T13:34:58.037Z,3.60
2017-05-27T13:37:26.361Z,4.10
2017-05-27T13:39:54.889Z,3.92
2017-05-27T13:42:23.212Z,3.38
2017-05-27T13:44:51.514Z,3.52
2017-05-27T13:47:19.846Z,3.42
2017-05-27T13:49:48.157Z,3.68
2017-05-27T13:52:16.457Z,3.50
2017-05-27T13:54:44.774Z,4.48
2017-05-27T13:57:13.073Z,4.06
2017-05-27T13:59:41.397Z,3.88
2017-05-27T14:02:09.689Z,4.48
2017-05-27T14:04:37.986Z,4.56
2017-05-27T14:07:06.302Z,3.98
2017-05-27T14:09:34.606Z,3.98
2017-05-27T14:12:02.162Z,3.26
2017-05-27T14:14:30.467Z,3.48
2017-05-27T14:16:58.771Z,3.80
2017-05-27T14:19:27.098Z,3.70
2017-05-27T14:21:55.398Z,3.80
2017-05-27T14:24:23.741Z,4.06
2017-05-27T14:26:52.047Z,5.08
2017-05-27T14:29:20.399Z,4.44
2017-05-27T14:31:48.719Z,4.22
2017-05-27T14:34:21.261Z,4.18
2017-05-27T14:36:49.594Z,4.00
2017-05-27T14:39:17.890Z,4.52
2017-05-27T14:41:46.184Z,3.98
2017-05-27T14:44:14.498Z,3.56
2017-05-27T14:46:42.798Z,4.98
2017-05-27T14:49:11.123Z,3.74
2017-05-27T14:51:39.423Z,3.64
2017-05-27T14:54:07.719Z,5.16
2017-05-27T14:56:36.042Z,3.66
2017-05-27T14:59:04.342Z,3.68
2017-05-27T15:01:32.663Z,3.42
2017-05-27T15:04:00.972Z,3.38
2017-05-27T15:06:29.263Z,3.76
2017-05-27T15:08:57.578Z,4.10
2017-05-27T15:11:25.875Z,3.56
2017-05-27T15:13:54.206Z,4.32
2017-05-27T15:16:22.502Z,3.62
2017-05-27T15:18:50.815Z,3.42
2017-05-27T15:21:19.133Z,3.80
2017-05-27T15:23:47.502Z,3.90
2017-05-27T15:26:15.819Z,3.34
2017-05-27T15:28:44.115Z,3.38
2017-05-27T15:31:11.642Z,3.82
2017-05-27T15:33:39.191Z,3.78
2017-05-27T15:36:07.510Z,4.12
2017-05-27T15:38:35.847Z,3.68
2017-05-27T15:41:04.146Z,3.48
2017-05-27T15:43:32.442Z,7.30
2017-05-27T15:46:00.761Z,4.20
2017-05-27T15:48:29.069Z,3.34
2017-05-27T15:50:58.687Z,3.54
2017-05-27T15:53:26.982Z,5.80
2017-05-27T15:55:55.273Z,4.00
2017-05-27T15:58:23.586Z,5.36
2017-05-27T16:00:51.886Z,4.12
2017-05-27T16:03:20.203Z,3.86
2017-05-27T16:05:48.509Z,3.50
2017-05-27T16:08:16.811Z,4.20
2017-05-27T16:10:45.127Z,3.50
2017-05-27T16:13:13.432Z,4.10
2017-05-27T16:15:41.750Z,4.34
2017-05-27T16:18:10.047Z,3.68
2017-05-27T16:20:38.354Z,4.22
2017-05-27T16:23:06.677Z,3.86
2017-05-27T16:25:34.963Z,3.94
2017-05-27T16:28:03.280Z,3.60
2017-05-27T16:30:31.598Z,6.04
2017-05-27T16:32:59.887Z,4.38
2017-05-27T16:35:28.199Z,3.90
2017-05-27T16:37:56.507Z,3.92
2017-05-27T16:40:24.818Z,5.52
2017-05-27T16:42:53.119Z,4.06
2017-05-27T16:45:21.417Z,5.72
2017-05-27T16:47:49.747Z,4.36
2017-05-27T16:50:18.445Z,4.60
2017-05-27T16:52:46.764Z,3.44
2017-05-27T16:55:15.065Z,5.92
2017-05-27T16:57:43.361Z,4.98
2017-05-27T17:00:12.546Z,4.16
2017-05-27T17:02:40.837Z,3.44
2017-05-27T17:05:09.160Z,4.76
2017-05-27T17:07:37.460Z,3.94
2017-05-27T17:10:05.755Z,5.72
2017-05-27T17:12:34.072Z,4.40
2017-05-27T17:15:02.369Z,3.82
2017-05-27T17:17:30.693Z,4.68
2017-05-27T17:19:58.989Z,8.68
2017-05-27T17:22:27.286Z,4.42
2017-05-27T17:24:55.617Z,6.08
2017-05-27T17:27:23.913Z,4.56
2017-05-27T17:29:52.231Z,3.80
2017-05-27T17:32:20.538Z,4.12
2017-05-27T17:34:48.836Z,4.30
2017-05-27T17:37:17.158Z,3.98
2017-05-27T17:39:45.449Z,4.54
2017-05-27T17:42:13.763Z,5.46
2017-05-27T17:44:42.090Z,4.32
2017-05-27T17:47:10.391Z,4.56
2017-05-27T17:49:39.872Z,4.68
2017-05-27T17:52:08.171Z,4.04
2017-05-27T17:54:36.472Z,4.48
2017-05-27T17:57:04.786Z,4.34
2017-05-27T17:59:33.085Z,4.50
2017-05-27T18:02:01.411Z,4.66
2017-05-27T18:04:29.706Z,4.52
2017-05-27T18:06:58.010Z,4.80
2017-05-27T18:09:26.323Z,4.90
2017-05-27T18:11:54.619Z,3.98
2017-05-27T18:14:22.943Z,5.02
2017-05-27T18:16:51.238Z,5.26
2017-05-27T18:19:19.535Z,5.06
2017-05-27T18:21:47.862Z,5.54
2017-05-27T18:24:16.158Z,6.72
2017-05-27T18:26:44.511Z,6.40
2017-05-27T18:29:12.821Z,5.44
2017-05-27T18:31:41.122Z,4.96
2017-05-27T18:34:09.451Z,5.50
2017-05-27T18:36:38.298Z,5.98
2017-05-27T18:39:06.632Z,6.82
2017-05-27T18:41:34.945Z,6.22
2017-05-27T18:44:03.325Z,5.14
2017-05-27T18:46:31.665Z,5.30
2017-05-27T18:48:59.988Z,5.36
2017-05-27T18:51:28.329Z,5.68
2017-05-27T18:53:56.625Z,5.66
2017-05-27T18:56:24.928Z,4.74
2017-05-27T18:58:53.250Z,4.36
2017-05-27T19:01:21.557Z,5.14
2017-05-27T19:03:49.888Z,5.12
2017-05-27T19:06:18.195Z,5.88
2017-05-27T19:08:46.532Z,5.46
2017-05-27T19:11:14.859Z,5.16
2017-05-27T19:13:43.163Z,5.52
2017-05-27T19:16:11.506Z,4.90
2017-05-27T19:18:39.819Z,5.52
2017-05-27T19:21:08.118Z,6.42
2017-05-27T19:23:36.456Z,5.00
2017-05-27T19:26:04.757Z,5.18
2017-05-27T19:28:33.094Z,6.32
2017-05-27T19:31:01.413Z,5.22
2017-05-27T19:33:29.708Z,5.68
2017-05-27T19:35:58.030Z,5.50
2017-05-27T19:38:26.343Z,5.94
2017-05-27T19:40:54.669Z,5.96
2017-05-27T19:43:22.971Z,6.02
2017-05-27T19:45:51.310Z,6.30
2017-05-27T19:48:19.650Z,5.42
2017-05-27T19:50:47.958Z,6.90
2017-05-27T19:53:16.284Z,6.54
2017-05-27T19:55:44.619Z,6.72
2017-05-27T19:58:12.919Z,6.70
2017-05-27T20:00:41.259Z,6.80
2017-05-27T20:03:09.560Z,7.38
2017-05-27T20:05:37.872Z,9.94
2017-05-27T20:08:06.208Z,7.38
2017-05-27T20:10:34.548Z,6.80
2017-05-27T20:13:02.895Z,7.80
2017-05-27T20:15:31.219Z,6.50
2017-05-27T20:17:59.522Z,8.57
2017-05-27T20:20:27.875Z,6.07
2017-05-27T20:22:56.199Z,8.33
2017-05-27T20:25:24.534Z,7.37
2017-05-27T20:27:52.858Z,8.02
2017-05-27T20:30:21.172Z,9.42
2017-05-27T20:32:49.499Z,7.50
2017-05-27T20:35:17.880Z,8.30
2017-05-27T20:37:46.218Z,8.68
2017-05-27T20:40:14.548Z,7.45
2017-05-27T20:42:42.855Z,8.20
2017-05-27T20:45:11.184Z,8.77
2017-05-27T20:47:39.518Z,7.97
2017-05-27T20:50:07.859Z,9.25
2017-05-27T20:52:36.183Z,8.22
2017-05-27T20:55:04.492Z,7.37
2017-05-27T20:57:32.828Z,7.17
2017-05-27T21:00:01.150Z,9.03
2017-05-27T21:02:29.474Z,7.53
2017-05-27T21:04:57.797Z,7.97
2017-05-27T21:07:26.111Z,8.17
2017-05-27T21:09:54.439Z,7.38
2017-05-27T21:12:22.799Z,7.57
2017-05-27T21:14:51.126Z,9.77
2017-05-27T21:17:19.436Z,7.58
2017-05-27T21:19:47.735Z,7.95
2017-05-27T21:22:17.184Z,8.17
2017-05-27T21:24:45.477Z,7.92
2017-05-27T21:27:13.797Z,8.20
2017-05-27T21:29:42.106Z,8.32
2017-05-27T21:32:10.406Z,8.97
2017-05-27T21:34:38.734Z,9.20
2017-05-27T21:37:07.034Z,7.93
2017-05-27T21:39:35.330Z,9.10
2017-05-27T21:42:03.651Z,8.87
2017-05-27T21:44:31.943Z,7.88
2017-05-27T21:47:00.269Z,8.22
2017-05-27T21:49:28.612Z,9.83
2017-05-27T21:51:56.918Z,8.88
2017-05-27T21:54:25.235Z,9.20
2017-05-27T21:56:53.529Z,10.27
2017-05-27T21:59:21.856Z,9.42
2017-05-27T22:01:50.158Z,10.08
2017-05-27T22:04:18.462Z,9.42
2017-05-27T22:06:46.781Z,10.18
2017-05-27T22:09:15.081Z,8.63
2017-05-27T22:11:43.402Z,10.48
2017-05-27T22:14:11.763Z,10.33
2017-05-27T22:16:40.063Z,10.42
2017-05-27T22:19:08.387Z,10.48
2017-05-27T22:21:36.683Z,9.63
2017-05-27T22:24:05.007Z,8.92
2017-05-27T22:26:33.315Z,9.80
2017-05-27T22:29:01.623Z,8.70
2017-05-27T22:31:29.942Z,8.98
2017-05-27T22:33:58.260Z,10.53
2017-05-27T22:36:26.586Z,11.63
2017-05-27T22:38:54.880Z,9.45
2017-05-27T22:41:23.179Z,9.45
2017-05-27T22:43:51.501Z,10.37
2017-05-27T22:46:19.796Z,10.68
2017-05-27T22:48:48.130Z,9.38
2017-05-27T22:51:16.422Z,9.77
2017-05-27T22:53:44.721Z,10.30
2017-05-27T22:56:13.043Z,10.75
2017-05-27T22:58:41.342Z,10.53
2017-05-27T23:01:09.671Z,9.67
2017-05-27T23:03:37.962Z,9.27
2017-05-27T23:06:06.254Z,9.93
2017-05-27T23:08:34.580Z,9.98
2017-05-27T23:11:02.902Z,10.00
2017-05-27T23:13:31.222Z,10.10
2017-05-27T23:15:59.518Z,9.58
2017-05-27T23:18:27.843Z,9.47
2017-05-27T23:20:56.803Z,10.65
2017-05-27T23:23:25.105Z,10.27
2017-05-27T23:25:53.414Z,9.65
2017-05-27T23:28:21.712Z,9.55
2017-05-27T23:30:50.038Z,9.05
2017-05-27T23:33:18.323Z,9.65
2017-05-27T23:35:46.630Z,9.05
2017-05-27T23:38:14.962Z,9.13
2017-05-27T23:40:43.250Z,8.43
2017-05-27T23:43:11.596Z,9.25
2017-05-27T23:45:39.895Z,8.92
2017-05-27T23:48:08.217Z,8.50
2017-05-27T23:50:36.528Z,9.23
2017-05-27T23:53:04.815Z,8.43
2017-05-27T23:55:33.145Z,9.22
2017-05-27T23:58:01.447Z,7.92
